G Force — MNHN9 — position and weather

sailwx.info

Track history (hours):
 
Tides and Currents Weather Stations Pressure Air Temp Water Temp Dewpoint Dewpoint Depression Visibility Wind Speed Wind Dir Waves Ship Positions

G Force

Last reported at 2014-Oct-20 16:25 UTC. Time now 2014-Oct-31 03:59 UTC.
Position N 41°47' E 003°03'.
Warning: this ship's position is 10 days out of date.

Length 37 m; draft 2 m.

Type: Pleasure craft. MMSI: 235011330.

Date/timePositionNaut miles runAvg speedWind from/ knotsBaromVisibWave heightAir tempDewpointWater temp
2014-Oct-20 16:25N 41°47' E 003°03'1112.6
2014-Oct-20 15:31N 41°55' E 003°14'19 2.7
2014-Oct-20 08:32N 42°14' E 003°12'0 0.0
2014-Oct-19 16:17N 42°14' E 003°12'1316.6
2014-Oct-19 15:32N 42°02' E 003°15'21 6.7
2014-Oct-19 12:25N 41°45' E 002°59'2023.1
2014-Oct-19 11:33N 41°33' E 002°37'22 1.1
2014-Oct-18 15:29N 41°23' E 002°11'0 0.0
2014-Oct-18 14:23N 41°23' E 002°11'0 0.0
2014-Oct-18 13:29N 41°23' E 002°11'0 0.0
2014-Oct-18 12:23N 41°23' E 002°11'0 0.0
2014-Oct-18 11:29N 41°23' E 002°11'0 0.0
2014-Oct-18 10:17N 41°23' E 002°11'0 0.0
2014-Oct-18 07:11N 41°23' E 002°11'0 0.0
2014-Oct-18 06:29N 41°23' E 002°11'0 0.0
2014-Oct-18 05:17N 41°23' E 002°11'0 0.0
2014-Oct-18 04:29N 41°23' E 002°11'0 0.0
2014-Oct-18 03:29N 41°23' E 002°11'0 0.0
2014-Oct-17 23:29N 41°23' E 002°11'0 0.0
2014-Oct-17 22:29N 41°23' E 002°11'0 0.0
2014-Oct-17 21:17N 41°23' E 002°11'0 0.0
2014-Oct-17 20:23N 41°23' E 002°11'0 0.0
2014-Oct-17 17:23N 41°23' E 002°11'0 0.0
2014-Oct-17 16:29N 41°23' E 002°11'0 0.0
2014-Oct-17 14:29N 41°23' E 002°11'0 0.0
2014-Oct-17 12:29N 41°23' E 002°11'0 0.0
2014-Oct-17 06:11N 41°23' E 002°11'0 0.0
2014-Oct-17 05:11N 41°23' E 002°11'0 0.0
2014-Oct-17 04:23N 41°23' E 002°11'0 0.0
2014-Oct-17 03:29N 41°23' E 002°11'0 0.0
2014-Oct-17 01:11N 41°23' E 002°11'0 0.0
2014-Oct-16 22:11N 41°23' E 002°11'0 0.0
2014-Oct-16 16:29N 41°23' E 002°11'0 0.0
2014-Oct-16 15:23N 41°23' E 002°11'0 0.0
2014-Oct-16 14:23N 41°23' E 002°11'0 0.0
2014-Oct-16 13:23N 41°23' E 002°11'0 0.0
2014-Oct-16 12:11N 41°23' E 002°11'0 0.0
2014-Oct-16 11:23N 41°23' E 002°11'0 0.0
2014-Oct-15 23:29N 41°23' E 002°11'0 0.0
2014-Oct-15 21:23N 41°23' E 002°11'  
Track history (hours):
 
Tides and Currents Weather Stations Pressure Air Temp Water Temp Dewpoint Dewpoint Depression Visibility Wind Speed Wind Dir Waves Ship Positions

G Force

Last reported at 2014-Oct-20 16:25 UTC. Time now 2014-Oct-31 03:59 UTC.
Position N 41°47' E 003°03'.
Warning: this ship's position is 10 days out of date.

Length 37 m; draft 2 m.

Type: Pleasure craft. MMSI: 235011330.

Date/timePositionNaut miles runAvg speedWind from/ knotsBaromVisibWave heightAir tempDewpointWater temp
2014-Oct-20 16:25N 41°47' E 003°03'1112.6
2014-Oct-20 15:31N 41°55' E 003°14'19 2.7
2014-Oct-20 08:32N 42°14' E 003°12'0 0.0
2014-Oct-19 16:17N 42°14' E 003°12'1316.6
2014-Oct-19 15:32N 42°02' E 003°15'21 6.7
2014-Oct-19 12:25N 41°45' E 002°59'2023.1
2014-Oct-19 11:33N 41°33' E 002°37'22 1.1
2014-Oct-18 15:29N 41°23' E 002°11'0 0.0
2014-Oct-18 14:23N 41°23' E 002°11'0 0.0
2014-Oct-18 13:29N 41°23' E 002°11'0 0.0
2014-Oct-18 12:23N 41°23' E 002°11'0 0.0
2014-Oct-18 11:29N 41°23' E 002°11'0 0.0
2014-Oct-18 10:17N 41°23' E 002°11'0 0.0
2014-Oct-18 07:11N 41°23' E 002°11'0 0.0
2014-Oct-18 06:29N 41°23' E 002°11'0 0.0
2014-Oct-18 05:17N 41°23' E 002°11'0 0.0
2014-Oct-18 04:29N 41°23' E 002°11'0 0.0
2014-Oct-18 03:29N 41°23' E 002°11'0 0.0
2014-Oct-17 23:29N 41°23' E 002°11'0 0.0
2014-Oct-17 22:29N 41°23' E 002°11'0 0.0
2014-Oct-17 21:17N 41°23' E 002°11'0 0.0
2014-Oct-17 20:23N 41°23' E 002°11'0 0.0
2014-Oct-17 17:23N 41°23' E 002°11'0 0.0
2014-Oct-17 16:29N 41°23' E 002°11'0 0.0
2014-Oct-17 14:29N 41°23' E 002°11'0 0.0
2014-Oct-17 12:29N 41°23' E 002°11'0 0.0
2014-Oct-17 06:11N 41°23' E 002°11'0 0.0
2014-Oct-17 05:11N 41°23' E 002°11'0 0.0
2014-Oct-17 04:23N 41°23' E 002°11'0 0.0
2014-Oct-17 03:29N 41°23' E 002°11'0 0.0
2014-Oct-17 01:11N 41°23' E 002°11'0 0.0
2014-Oct-16 22:11N 41°23' E 002°11'0 0.0
2014-Oct-16 16:29N 41°23' E 002°11'0 0.0
2014-Oct-16 15:23N 41°23' E 002°11'0 0.0
2014-Oct-16 14:23N 41°23' E 002°11'0 0.0
2014-Oct-16 13:23N 41°23' E 002°11'0 0.0
2014-Oct-16 12:11N 41°23' E 002°11'0 0.0
2014-Oct-16 11:23N 41°23' E 002°11'0 0.0
2014-Oct-15 23:29N 41°23' E 002°11'0 0.0
2014-Oct-15 21:23N 41°23' E 002°11'  

Dump ship's entire track history